עמוד ראשי
METAR-TAF:

METAR-TAF

שדות תעופה :

Al-Hasa, ערב הסעודית

קו רוחב: 25-18N, קו אורך: 049-29E, גובה: 179מטר

תצפית מזג אוויר נוכחית

הדו"ח נערך לפני 39דקות, בשעה 19:00 UTC
רוח רגועה
טמפרטורת 35 צלסיוס
לחות 14%
לחץ 1002 hPa
ראות 10 קילומטר או יותר
ללא עננים שבסיסם נמוך מ 5000 רגל או קומולונימבוס

METAR: OEAH 131900Z 00000KT CAVOK 35/04 Q1002 NOSIG

זמן: 22:39 (19:39 UTC)

תחזית

הדו"ח נערך לפני 9 שעות ו 39דקות, בשעה 10:00 UTC
תחזית בתוקף מ 13 ב 12 UTC עד 14 ב 18 UTC
רוח 8קשר מכיוון צפון/צפון-מערב
ראות 10 קילומטר או יותר
ללא עננים שבסיסם נמוך מ 5000 רגל או קומולונימבוס
יעשה מ
13 ב 18 UTC עד 13 ב 20 UTC
רוח 3קשר עם כיוונים משתנים
יעשה מ
14 ב 00 UTC עד 14 ב 02 UTC
רוח 8קשר מכיוון מערב

TAF: OEAH 131000Z 1312/1418 34008KT CAVOK BECMG 1318/1320 VRB03KT BECMG 1400/1402 26008KT

תצפיות ותחזיות מזג אוויר לגבי יותר מ- 4,000 שדות תעופה ברחבי העולם. דוחות METAR ו- TAF.

התחנות הזמינות מסומנות בנקודות צהובות ואדומות על גבי המפה.

העבר את העכבר לנקודה הצבעונית על מנת לראות את שם התחנה.

לאחר מכן, לחץ כדי לראות את תוכן ואת תחזיות מזג האוויר.

כדי לשנות את המפה: לחץ על הכפתורים הירוקים עם הפלוס השחור כדי להתקרב; על הכפתור הירוק עם המקף כדי להתרחק; או בחיצים הירוקים למפות סמוכות.


METAR-TAF: